Aviation Digital Data Service (ADDS)

Output produced by METARs form (2212 UTC 20 October 2018)
found at http://www.aviationweather.gov/metar/data/
 
VCBI 202110Z VRB01KT 9000 FEW017 24/22 Q1011 NOSIG
TAF VCBI 201700Z 2018/2124 25005KT 9999 SCT017 TX30/2107Z TN25/2100Z 
     BECMG 2102/2104 16004KT 
     PROB40 
     TEMPO 2110/2116 6000 -TSRA/SHRA FEW012 SCT016 FEW020CB 
     BECMG 2116/2118 VRB05KT